Time;durP1;ratioP1;P1;durP2;ratioP2;P2;SDS_P1;SDS_P2;PMS_P1;PMS_P2;Temp;Humidity;BMP_temperature;BMP_pressure;BME280_temperature;BME280_humidity;BME280_pressure;Samples;Min_cycle;Max_cycle;Signal;HPM_P1;HPM_P2
2021/12/27 00:00:34;;;;;;;28.27;13.32;;;102.50;1996.80;;;;;;5106099;28;20389;-59
2021/12/27 00:03:01;;;;;;;25.45;12.70;;;102.60;2048.00;;;;;;5114802;28;20031;-61
2021/12/27 00:05:28;;;;;;;27.00;12.68;;;102.60;2048.00;;;;;;5114891;28;20342;-65
2021/12/27 00:07:54;;;;;;;26.90;11.02;;;102.60;1996.80;;;;;;5114755;28;20487;-61
2021/12/27 00:10:22;;;;;;;23.70;12.07;;;102.60;1996.80;;;;;;5114080;28;20034;-61
2021/12/27 00:12:48;;;;;;;25.55;12.63;;;102.60;2048.00;;;;;;5102510;28;20112;-59
2021/12/27 00:15:15;;;;;;;27.77;14.02;;;102.60;2022.40;;;;;;5094756;28;20488;-62
2021/12/27 00:17:42;;;;;;;29.08;13.82;;;102.50;1996.80;;;;;;5092224;28;20051;-61
2021/12/27 00:20:11;;;;;;;28.02;13.10;;;102.60;1971.20;;;;;;5105633;28;20016;-62
2021/12/27 00:22:37;;;;;;;23.15;11.55;;;102.60;1971.20;;;;;;5114984;28;20035;-61
2021/12/27 00:25:04;;;;;;;24.00;11.50;;;102.50;1971.20;;;;;;5104551;28;20035;-60
2021/12/27 00:27:29;;;;;;;24.00;12.40;;;102.50;1996.80;;;;;;5095788;28;20048;-60
2021/12/27 00:29:55;;;;;;;23.35;12.45;;;102.40;1996.80;;;;;;5113351;28;20051;-61
2021/12/27 00:32:21;;;;;;;29.10;13.73;;;102.40;1996.80;;;;;;5109170;28;20024;-60
2021/12/27 00:34:47;;;;;;;29.42;13.65;;;102.50;2048.00;;;;;;5094519;28;20039;-60
2021/12/27 00:37:12;;;;;;;29.95;14.43;;;102.50;2048.00;;;;;;5113025;28;20039;-60
2021/12/27 00:39:38;;;;;;;48.58;15.55;;;102.60;2124.80;;;;;;5103436;28;20043;-60
2021/12/27 00:42:05;;;;;;;27.85;14.38;;;102.70;2201.60;;;;;;5095154;28;20097;-59
2021/12/27 00:44:31;;;;;;;23.95;13.00;;;102.70;2201.60;;;;;;5104544;28;20085;-60
2021/12/27 00:46:57;;;;;;;25.25;12.95;;;102.70;2099.20;;;;;;5096608;28;20362;-59
2021/12/27 00:49:23;;;;;;;26.25;13.95;;;102.80;2022.40;;;;;;5093484;28;20027;-58
2021/12/27 00:51:48;;;;;;;27.33;13.88;;;102.70;2073.60;;;;;;5093844;28;20028;-60
2021/12/27 00:54:15;;;;;;;25.58;13.07;;;102.80;2073.60;;;;;;5095922;28;20031;-60
2021/12/27 00:56:41;;;;;;;23.80;13.38;;;102.80;2022.40;;;;;;5093759;28;20040;-61
2021/12/27 00:59:06;;;;;;;23.33;12.68;;;102.80;2048.00;;;;;;5093625;28;20193;-68
2021/12/27 01:01:32;;;;;;;24.38;13.07;;;102.90;2022.40;;;;;;5104163;28;20032;-59
2021/12/27 01:03:59;;;;;;;26.95;14.02;;;102.90;2022.40;;;;;;5114137;28;20072;-64
2021/12/27 01:06:25;;;;;;;21.60;12.25;;;102.90;2048.00;;;;;;5113336;28;20028;-60
2021/12/27 01:08:52;;;;;;;21.63;11.77;;;102.90;1971.20;;;;;;5113960;28;20042;-65
2021/12/27 01:11:41;;;;;;;22.85;11.70;;;102.80;2022.40;;;;;;5113247;28;20154;-65
2021/12/27 01:14:14;;;;;;;19.73;12.43;;;102.90;2022.40;;;;;;5094003;28;20096;-63
2021/12/27 01:16:42;;;;;;;18.60;10.85;;;102.90;1971.20;;;;;;5095827;28;20119;-61
2021/12/27 01:19:08;;;;;;;18.48;11.02;;;102.90;2022.40;;;;;;5093123;28;20028;-61
2021/12/27 01:21:35;;;;;;;21.58;11.38;;;103.00;1971.20;;;;;;5093606;28;20032;-64
2021/12/27 01:24:02;;;;;;;20.38;12.00;;;103.00;1996.80;;;;;;5093287;28;20161;-61
2021/12/27 01:26:28;;;;;;;18.70;11.20;;;103.00;2022.40;;;;;;5093528;28;20054;-67
2021/12/27 01:28:56;;;;;;;21.58;11.32;;;103.00;1945.60;;;;;;5093514;28;20513;-60
2021/12/27 01:31:22;;;;;;;17.55;11.00;;;102.80;2022.40;;;;;;5093135;28;20105;-65
2021/12/27 01:33:49;;;;;;;21.92;10.75;;;102.90;2022.40;;;;;;5093312;28;20028;-60
2021/12/27 01:36:15;;;;;;;20.08;11.73;;;102.90;1945.60;;;;;;5093056;28;20026;-60
2021/12/27 01:38:41;;;;;;;19.60;10.63;;;102.80;2022.40;;;;;;5093379;28;20074;-61
2021/12/27 01:41:09;;;;;;;20.75;11.05;;;102.90;2022.40;;;;;;5093248;28;20036;-61
2021/12/27 01:43:38;;;;;;;18.88;11.05;;;102.80;1971.20;;;;;;5092943;28;20077;-67
2021/12/27 01:46:13;;;;;;;21.45;11.38;;;102.80;2022.40;;;;;;5093233;28;20095;-61
2021/12/27 01:48:42;;;;;;;19.55;11.52;;;102.80;1996.80;;;;;;5094541;28;20035;-66
2021/12/27 01:51:10;;;;;;;21.13;12.15;;;102.80;2022.40;;;;;;5097088;28;20073;-65
2021/12/27 01:53:38;;;;;;;18.73;11.30;;;102.70;2048.00;;;;;;5096195;28;20028;-63
2021/12/27 01:56:06;;;;;;;17.42;10.43;;;102.80;1996.80;;;;;;5096334;28;20024;-61
2021/12/27 01:58:32;;;;;;;18.98;11.02;;;102.70;2048.00;;;;;;5096692;28;20461;-60
2021/12/27 02:01:02;;;;;;;19.50;10.30;;;102.70;2073.60;;;;;;5096624;28;20044;-62
2021/12/27 02:03:29;;;;;;;18.27;10.48;;;102.60;2022.40;;;;;;5101574;28;20097;-60
2021/12/27 02:05:56;;;;;;;19.83;10.98;;;102.60;2022.40;;;;;;5100519;28;20082;-60
2021/12/27 02:08:23;;;;;;;17.92;10.65;;;102.70;2073.60;;;;;;5096408;28;20468;-60
2021/12/27 02:10:51;;;;;;;19.70;11.52;;;102.70;2022.40;;;;;;5095769;28;20084;-61
2021/12/27 02:13:17;;;;;;;24.55;13.05;;;102.70;2022.40;;;;;;5109529;28;20032;-60
2021/12/27 02:15:44;;;;;;;20.60;13.32;;;102.70;2073.60;;;;;;5115994;28;20054;-61
2021/12/27 02:18:10;;;;;;;21.83;13.98;;;102.70;2022.40;;;;;;5116975;28;20139;-63
2021/12/27 02:20:37;;;;;;;19.45;12.05;;;102.70;2022.40;;;;;;5103800;28;20564;-62
2021/12/27 02:23:10;;;;;;;17.50;10.73;;;102.80;2048.00;;;;;;5096552;28;20101;-63
2021/12/27 02:25:36;;;;;;;18.00;11.15;;;102.80;2022.40;;;;;;5099626;28;20043;-60
2021/12/27 02:28:07;;;;;;;16.02;9.85;;;102.80;1996.80;;;;;;5095755;28;20031;-62
2021/12/27 02:30:34;;;;;;;16.90;9.98;;;102.80;2022.40;;;;;;5111199;28;20437;-62
2021/12/27 02:33:06;;;;;;;16.00;9.35;;;102.80;1996.80;;;;;;5113947;28;20028;-60
2021/12/27 02:35:41;;;;;;;16.00;9.80;;;102.70;1996.80;;;;;;5097068;28;20024;-62
2021/12/27 02:38:11;;;;;;;18.60;10.68;;;102.70;2048.00;;;;;;5095537;28;20111;-61
2021/12/27 02:40:39;;;;;;;16.48;9.80;;;102.70;2022.40;;;;;;5095499;28;20023;-60
2021/12/27 02:43:08;;;;;;;18.20;9.82;;;102.70;1996.80;;;;;;5094119;28;20032;-61
2021/12/27 02:45:37;;;;;;;20.08;9.77;;;102.60;2022.40;;;;;;5095869;28;20020;-60
2021/12/27 02:48:04;;;;;;;18.50;10.20;;;102.70;2048.00;;;;;;5095816;28;20542;-61
2021/12/27 02:50:31;;;;;;;19.45;10.02;;;102.60;2022.40;;;;;;5096018;28;20050;-60
2021/12/27 02:52:58;;;;;;;17.67;10.50;;;102.60;1996.80;;;;;;5095578;28;20032;-63
2021/12/27 02:55:24;;;;;;;18.92;10.57;;;102.60;2048.00;;;;;;5099884;28;20111;-61
2021/12/27 02:57:50;;;;;;;19.48;10.55;;;102.60;2048.00;;;;;;5093480;28;20023;-63
2021/12/27 03:00:27;;;;;;;20.40;10.02;;;102.60;1996.80;;;;;;5093846;28;20181;-60
2021/12/27 03:02:55;;;;;;;18.75;10.80;;;102.60;2022.40;;;;;;5095224;28;20465;-60
2021/12/27 03:05:23;;;;;;;16.70;9.80;;;102.70;2048.00;;;;;;5094952;28;20026;-62
2021/12/27 03:07:50;;;;;;;19.33;10.25;;;102.70;1996.80;;;;;;5095054;28;20036;-60
2021/12/27 03:10:20;;;;;;;18.80;10.13;;;102.70;1971.20;;;;;;5095050;28;20381;-60
2021/12/27 03:12:47;;;;;;;17.50;10.00;;;102.70;2022.40;;;;;;5095097;28;20495;-62
2021/12/27 03:15:15;;;;;;;20.95;10.40;;;102.80;2022.40;;;;;;5098719;28;20422;-60
2021/12/27 03:17:43;;;;;;;17.52;10.25;;;102.80;1971.20;;;;;;5115910;28;20384;-62
2021/12/27 03:20:11;;;;;;;21.20;11.85;;;102.70;1971.20;;;;;;5097136;28;20047;-60
2021/12/27 03:22:37;;;;;;;24.67;11.75;;;102.60;1996.80;;;;;;5115676;28;20027;-61
2021/12/27 03:25:05;;;;;;;24.02;11.07;;;102.60;1971.20;;;;;;5115688;28;20052;-61
2021/12/27 03:27:31;;;;;;;22.80;11.57;;;102.60;1996.80;;;;;;5115395;28;20038;-61
2021/12/27 03:29:57;;;;;;;21.77;11.15;;;102.60;1996.80;;;;;;5114938;28;20032;-61
2021/12/27 03:32:23;;;;;;;26.85;11.48;;;102.60;1996.80;;;;;;5115308;28;20089;-61
2021/12/27 03:34:54;;;;;;;19.02;10.63;;;102.70;1996.80;;;;;;5115503;28;20110;-61
2021/12/27 03:37:22;;;;;;;18.25;10.23;;;102.70;1996.80;;;;;;5115192;28;20076;-60
2021/12/27 03:39:48;;;;;;;19.05;11.18;;;102.60;1996.80;;;;;;5115309;28;20023;-60
2021/12/27 03:42:15;;;;;;;17.77;10.30;;;102.70;1996.80;;;;;;5115061;28;20019;-60
2021/12/27 03:44:42;;;;;;;19.52;11.75;;;102.70;1996.80;;;;;;5115199;28;20368;-62
2021/12/27 03:47:11;;;;;;;24.83;12.40;;;102.60;2022.40;;;;;;5115064;28;20035;-60
2021/12/27 03:49:37;;;;;;;21.48;11.27;;;102.70;2048.00;;;;;;5115000;28;20465;-62
2021/12/27 03:52:04;;;;;;;23.50;13.07;;;102.80;2073.60;;;;;;5114993;28;20460;-62
2021/12/27 03:54:30;;;;;;;19.98;12.25;;;102.90;2150.40;;;;;;5115106;28;20103;-62
2021/12/27 03:56:56;;;;;;;28.05;14.07;;;102.90;2073.60;;;;;;5114926;28;20069;-60
2021/12/27 03:59:34;;;;;;;23.15;12.77;;;102.90;1996.80;;;;;;5114904;28;20024;-62
2021/12/27 04:02:00;;;;;;;19.70;11.77;;;102.90;2048.00;;;;;;5114754;28;20055;-61
2021/12/27 04:04:26;;;;;;;28.50;11.98;;;102.90;2022.40;;;;;;5115025;28;20062;-63
2021/12/27 04:06:52;;;;;;;25.05;12.52;;;102.90;1996.80;;;;;;5114985;28;20115;-61
2021/12/27 04:09:19;;;;;;;27.60;13.75;;;102.90;2022.40;;;;;;5114134;28;20023;-66
2021/12/27 04:11:45;;;;;;;30.65;15.52;;;102.90;2022.40;;;;;;5114174;28;20024;-64
2021/12/27 04:14:11;;;;;;;35.38;16.42;;;102.90;1996.80;;;;;;5114047;28;20084;-63
2021/12/27 04:16:36;;;;;;;35.63;14.70;;;102.90;2048.00;;;;;;5114382;28;20044;-63
2021/12/27 04:19:02;;;;;;;140.38;36.42;;;102.90;2048.00;;;;;;5114257;28;20396;-67
2021/12/27 04:21:28;;;;;;;72.63;22.08;;;103.00;2176.00;;;;;;5114696;28;20020;-62
2021/12/27 04:23:54;;;;;;;40.45;16.77;;;128.00;2201.60;;;;;;5096390;28;20522;-61
2021/12/27 04:26:22;;;;;;;33.28;14.75;;;128.00;2099.20;;;;;;5114425;28;20495;-61
2021/12/27 04:28:48;;;;;;;36.85;15.30;;;103.30;2022.40;;;;;;5114263;28;20038;-61
2021/12/27 04:31:14;;;;;;;30.55;12.80;;;103.30;2073.60;;;;;;5113907;28;20022;-60
2021/12/27 04:33:40;;;;;;;28.08;14.27;;;103.30;2048.00;;;;;;5114286;28;20039;-61
2021/12/27 04:36:06;;;;;;;23.60;13.80;;;103.30;2022.40;;;;;;5114297;28;20035;-61
2021/12/27 04:38:33;;;;;;;22.52;14.02;;;103.20;2022.40;;;;;;5114448;28;20023;-61
2021/12/27 04:40:59;;;;;;;25.13;13.70;;;103.20;2022.40;;;;;;5114706;28;20430;-61
2021/12/27 04:43:25;;;;;;;26.70;15.20;;;103.20;2022.40;;;;;;5096056;28;20023;-61
2021/12/27 04:45:52;;;;;;;25.77;14.75;;;103.20;2048.00;;;;;;5113994;28;20080;-62
2021/12/27 04:48:20;;;;;;;28.67;14.80;;;103.20;2022.40;;;;;;5114378;28;20032;-62
2021/12/27 04:50:45;;;;;;;25.02;14.77;;;103.20;2048.00;;;;;;5114318;28;20111;-62
2021/12/27 04:53:11;;;;;;;25.73;14.05;;;103.10;2048.00;;;;;;5114155;28;20059;-62
2021/12/27 04:55:37;;;;;;;23.38;13.68;;;103.20;2048.00;;;;;;5113979;28;20050;-62
2021/12/27 04:58:05;;;;;;;22.85;12.93;;;103.10;2048.00;;;;;;5113848;28;20396;-62
2021/12/27 05:00:31;;;;;;;21.85;12.95;;;103.10;2048.00;;;;;;5095602;28;20035;-62
2021/12/27 05:02:58;;;;;;;23.50;12.23;;;103.10;2048.00;;;;;;5114250;28;20045;-62
2021/12/27 05:05:28;;;;;;;20.73;12.93;;;103.20;2048.00;;;;;;5114092;28;20031;-60
2021/12/27 05:07:54;;;;;;;21.27;13.10;;;103.20;2048.00;;;;;;5113961;28;20035;-61
2021/12/27 05:10:20;;;;;;;19.33;13.10;;;103.10;2048.00;;;;;;5114485;28;20034;-62
2021/12/27 05:12:45;;;;;;;18.73;11.38;;;103.10;2048.00;;;;;;5114077;28;20034;-61
2021/12/27 05:15:12;;;;;;;19.38;11.88;;;103.10;2048.00;;;;;;5113909;28;20049;-59
2021/12/27 05:17:37;;;;;;;20.42;13.02;;;103.10;2073.60;;;;;;5113748;28;20441;-63
2021/12/27 05:20:05;;;;;;;17.85;11.82;;;103.10;2048.00;;;;;;5114012;28;20031;-62
2021/12/27 05:22:32;;;;;;;21.77;12.65;;;103.10;2073.60;;;;;;5113742;28;20024;-60
2021/12/27 05:24:58;;;;;;;20.88;13.07;;;103.10;2048.00;;;;;;5117586;28;20028;-60
2021/12/27 05:27:24;;;;;;;24.20;12.88;;;103.20;2048.00;;;;;;5117332;28;20063;-59
2021/12/27 05:29:49;;;;;;;22.52;12.82;;;103.20;2048.00;;;;;;5098561;28;20070;-62
2021/12/27 05:32:15;;;;;;;23.42;12.55;;;103.20;2048.00;;;;;;5117666;28;20119;-62
2021/12/27 05:34:41;;;;;;;21.00;13.45;;;103.10;2048.00;;;;;;5099045;28;20040;-62
2021/12/27 05:37:07;;;;;;;27.08;14.02;;;103.10;2048.00;;;;;;5117952;28;20373;-62
2021/12/27 05:39:34;;;;;;;25.45;13.77;;;103.10;2048.00;;;;;;5117452;28;20055;-62
2021/12/27 05:42:00;;;;;;;28.40;15.27;;;103.10;2073.60;;;;;;5117749;28;20047;-62
2021/12/27 05:44:26;;;;;;;24.15;13.40;;;103.20;2048.00;;;;;;5117575;28;20032;-62
2021/12/27 05:46:52;;;;;;;22.55;13.48;;;103.20;2048.00;;;;;;5098604;28;20043;-61
2021/12/27 05:49:18;;;;;;;26.50;14.80;;;103.20;2073.60;;;;;;5117482;28;20023;-62
2021/12/27 05:51:44;;;;;;;24.17;14.48;;;103.20;2073.60;;;;;;5117451;28;20030;-62
2021/12/27 05:54:11;;;;;;;23.55;14.70;;;103.10;2048.00;;;;;;5117346;28;20024;-62
2021/12/27 05:56:37;;;;;;;26.10;15.60;;;103.10;2073.60;;;;;;5117229;28;20024;-62
2021/12/27 05:59:02;;;;;;;22.30;14.02;;;103.10;2073.60;;;;;;5117440;28;20031;-61
2021/12/27 06:01:28;;;;;;;21.85;13.25;;;103.20;2073.60;;;;;;5117315;28;20461;-62
2021/12/27 06:03:57;;;;;;;21.25;14.15;;;103.20;2073.60;;;;;;5117300;28;20376;-62
2021/12/27 06:06:23;;;;;;;26.17;15.55;;;103.20;2073.60;;;;;;5116876;28;20035;-62
2021/12/27 06:08:49;;;;;;;23.55;14.90;;;103.20;2073.60;;;;;;5116212;28;20031;-61
2021/12/27 06:11:15;;;;;;;20.83;12.38;;;103.20;2073.60;;;;;;5116925;28;20016;-62
2021/12/27 06:13:41;;;;;;;17.95;11.95;;;103.20;2073.60;;;;;;5116326;28;20110;-62
2021/12/27 06:16:07;;;;;;;26.10;15.98;;;103.20;2073.60;;;;;;5116921;28;20058;-60
2021/12/27 06:18:32;;;;;;;23.45;14.77;;;103.20;2073.60;;;;;;5116752;28;20030;-61
2021/12/27 06:20:58;;;;;;;30.70;18.20;;;103.20;2073.60;;;;;;5116855;28;20036;-61
2021/12/27 06:23:24;;;;;;;37.88;19.45;;;103.10;2073.60;;;;;;5098661;28;20039;-63
2021/12/27 06:25:49;;;;;;;30.00;17.40;;;103.20;2073.60;;;;;;5115936;28;20074;-62
2021/12/27 06:28:16;;;;;;;35.45;18.30;;;103.20;2073.60;;;;;;5116501;28;20427;-61
2021/12/27 06:30:42;;;;;;;35.08;18.55;;;103.20;2073.60;;;;;;5116540;28;20027;-63
2021/12/27 06:33:10;;;;;;;34.20;18.63;;;103.20;2048.00;;;;;;5097525;28;20039;-61
2021/12/27 06:35:36;;;;;;;38.58;20.25;;;103.20;2073.60;;;;;;5116547;28;20035;-61
2021/12/27 06:38:03;;;;;;;39.72;22.65;;;103.20;2073.60;;;;;;5116494;28;20042;-61
2021/12/27 06:40:30;;;;;;;34.90;20.38;;;103.20;2073.60;;;;;;5098423;28;20028;-60
2021/12/27 06:42:57;;;;;;;39.05;21.15;;;103.10;2099.20;;;;;;5116497;28;20495;-60
2021/12/27 06:45:23;;;;;;;34.10;20.30;;;103.10;2099.20;;;;;;5115946;28;20484;-60
2021/12/27 06:47:49;;;;;;;28.08;16.65;;;103.10;2099.20;;;;;;5115985;28;20063;-62
2021/12/27 06:50:15;;;;;;;22.10;14.30;;;103.20;2099.20;;;;;;5116268;28;20030;-62
2021/12/27 06:52:41;;;;;;;31.10;16.98;;;103.10;2099.20;;;;;;5116207;28;20051;-62
2021/12/27 06:55:08;;;;;;;24.13;14.90;;;103.20;2073.60;;;;;;5116176;28;20023;-61
2021/12/27 06:57:34;;;;;;;27.05;15.07;;;103.20;2099.20;;;;;;5116020;28;20051;-60
2021/12/27 07:00:01;;;;;;;36.05;19.77;;;103.20;2099.20;;;;;;5116014;28;20055;-62
2021/12/27 07:02:27;;;;;;;37.20;20.95;;;103.20;2124.80;;;;;;5116038;28;20036;-62
2021/12/27 07:04:53;;;;;;;35.75;19.52;;;103.20;2099.20;;;;;;5115898;28;20023;-62
2021/12/27 07:07:19;;;;;;;36.00;20.55;;;103.20;2099.20;;;;;;5115922;28;20035;-61
2021/12/27 07:09:44;;;;;;;49.67;26.17;;;103.20;2099.20;;;;;;5115507;28;20027;-60
2021/12/27 07:12:10;;;;;;;48.85;26.73;;;103.20;2099.20;;;;;;5115122;28;20501;-61
2021/12/27 07:14:36;;;;;;;49.20;27.27;;;103.20;2099.20;;;;;;5097343;28;20023;-61
2021/12/27 07:17:02;;;;;;;45.60;26.63;;;103.10;2099.20;;;;;;5115268;28;20047;-62
2021/12/27 07:19:28;;;;;;;43.03;24.77;;;103.20;2073.60;;;;;;5096792;28;20036;-61
2021/12/27 07:21:54;;;;;;;41.67;23.35;;;103.20;2099.20;;;;;;5115045;28;20034;-62
2021/12/27 07:24:20;;;;;;;39.03;23.15;;;103.20;2099.20;;;;;;5114941;28;20072;-61
2021/12/27 07:26:46;;;;;;;33.88;20.50;;;103.20;2099.20;;;;;;5115335;28;20027;-70
2021/12/27 07:29:11;;;;;;;30.25;18.30;;;103.20;2099.20;;;;;;5097599;28;20077;-62
2021/12/27 07:31:37;;;;;;;28.25;17.13;;;103.20;2099.20;;;;;;5115040;28;20031;-61
2021/12/27 07:34:03;;;;;;;25.77;16.50;;;103.20;2099.20;;;;;;5115083;28;20027;-63
2021/12/27 07:36:31;;;;;;;26.38;15.40;;;103.20;2099.20;;;;;;5115491;28;20046;-63
2021/12/27 07:39:00;;;;;;;31.52;20.95;;;103.20;2099.20;;;;;;5115145;28;20043;-62
2021/12/27 07:41:26;;;;;;;45.35;26.65;;;103.20;2099.20;;;;;;5115626;28;20460;-63
2021/12/27 07:43:51;;;;;;;62.42;33.80;;;103.20;2099.20;;;;;;5114973;28;20036;-63
2021/12/27 07:46:17;;;;;;;65.82;35.22;;;103.10;2099.20;;;;;;5095811;28;20488;-67
2021/12/27 07:48:43;;;;;;;69.07;38.15;;;103.10;2099.20;;;;;;5114922;28;20039;-66
2021/12/27 07:51:09;;;;;;;113.38;60.95;;;103.10;2099.20;;;;;;5115626;28;20106;-65
2021/12/27 07:53:35;;;;;;;50.60;31.35;;;103.20;2073.60;;;;;;5115110;28;20468;-66
2021/12/27 07:56:00;;;;;;;37.92;23.73;;;103.30;2048.00;;;;;;5096709;28;20487;-65
2021/12/27 07:58:26;;;;;;;44.90;24.50;;;103.30;2048.00;;;;;;5096539;28;20415;-65
2021/12/27 08:00:54;;;;;;;49.47;27.95;;;103.30;2048.00;;;;;;5114589;28;20032;-59
2021/12/27 08:03:20;;;;;;;53.47;31.50;;;103.30;2048.00;;;;;;5095251;28;20023;-60
2021/12/27 08:05:47;;;;;;;48.97;30.02;;;103.30;2048.00;;;;;;5114651;28;20518;-59
2021/12/27 08:08:13;;;;;;;49.83;28.52;;;103.30;2048.00;;;;;;5114602;28;20488;-58
2021/12/27 08:10:38;;;;;;;68.03;29.33;;;103.30;2048.00;;;;;;5114125;28;20023;-66
2021/12/27 08:13:04;;;;;;;81.10;35.47;;;103.30;2022.40;;;;;;5114653;28;20026;-66
2021/12/27 08:15:30;;;;;;;79.65;35.30;;;103.30;2048.00;;;;;;5114605;28;20439;-65
2021/12/27 08:17:56;;;;;;;53.17;24.55;;;103.30;2048.00;;;;;;5095637;28;20123;-59
2021/12/27 08:20:21;;;;;;;49.90;24.33;;;103.30;2048.00;;;;;;5114630;28;20404;-57
2021/12/27 08:22:49;;;;;;;59.50;29.42;;;103.30;2048.00;;;;;;5095826;28;20066;-59
2021/12/27 08:25:15;;;;;;;124.35;72.57;;;103.20;2048.00;;;;;;5114048;28;20035;-59
2021/12/27 08:27:42;;;;;;;104.43;62.00;;;103.20;2048.00;;;;;;5114007;28;20035;-60
2021/12/27 08:30:09;;;;;;;74.20;45.28;;;103.20;2048.00;;;;;;5114306;28;20024;-59
2021/12/27 08:32:39;;;;;;;66.75;41.25;;;103.20;2048.00;;;;;;5114460;28;20035;-60
2021/12/27 08:35:07;;;;;;;68.68;41.78;;;103.20;2048.00;;;;;;5114170;28;20019;-59
2021/12/27 08:37:33;;;;;;;68.35;40.13;;;103.20;2048.00;;;;;;5095359;28;20511;-60
2021/12/27 08:39:59;;;;;;;62.47;37.45;;;103.20;2048.00;;;;;;5095529;28;20488;-60
2021/12/27 08:42:25;;;;;;;74.25;41.83;;;103.20;2048.00;;;;;;5114266;28;20023;-59
2021/12/27 08:44:51;;;;;;;80.80;48.47;;;103.20;2048.00;;;;;;5094836;28;20035;-59
2021/12/27 08:47:17;;;;;;;87.43;43.50;;;103.20;2048.00;;;;;;5113978;28;20107;-59
2021/12/27 08:49:44;;;;;;;74.65;40.97;;;103.20;2099.20;;;;;;5114088;28;20059;-60
2021/12/27 08:52:10;;;;;;;68.07;38.42;;;103.30;2073.60;;;;;;5114268;28;20110;-59
2021/12/27 08:54:35;;;;;;;67.32;39.22;;;103.20;2073.60;;;;;;5114042;28;20041;-59
2021/12/27 08:57:04;;;;;;;78.22;42.70;;;103.30;2073.60;;;;;;5114162;28;20365;-59
2021/12/27 08:59:30;;;;;;;68.18;40.45;;;103.20;2073.60;;;;;;5116979;28;20399;-59
2021/12/27 09:01:56;;;;;;;68.88;39.88;;;103.10;2073.60;;;;;;5118062;28;20454;-60
2021/12/27 09:04:23;;;;;;;68.40;40.80;;;103.10;2073.60;;;;;;5118660;28;20031;-59
2021/12/27 09:06:49;;;;;;;64.50;38.40;;;103.00;2073.60;;;;;;5118073;28;20111;-59
2021/12/27 09:09:15;;;;;;;72.30;41.95;;;103.00;2073.60;;;;;;5099261;28;20040;-59
2021/12/27 09:11:43;;;;;;;55.22;32.70;;;102.90;2073.60;;;;;;5117891;28;20023;-59
2021/12/27 09:14:09;;;;;;;57.75;33.75;;;102.90;2073.60;;;;;;5117985;28;20027;-60
2021/12/27 09:16:35;;;;;;;54.88;33.38;;;102.90;2073.60;;;;;;5117618;28;20051;-59
2021/12/27 09:19:01;;;;;;;47.38;28.38;;;102.90;2073.60;;;;;;5117710;28;20032;-58
2021/12/27 09:21:27;;;;;;;45.80;28.73;;;102.80;2099.20;;;;;;5117818;28;20024;-59
2021/12/27 09:23:53;;;;;;;40.85;24.85;;;102.80;2073.60;;;;;;5117736;28;20028;-59
2021/12/27 09:26:18;;;;;;;41.45;24.27;;;102.80;2099.20;;;;;;5117801;28;20035;-60
2021/12/27 09:28:44;;;;;;;38.47;22.15;;;102.80;2099.20;;;;;;5117565;28;20045;-59
2021/12/27 09:31:10;;;;;;;43.38;26.63;;;102.80;2099.20;;;;;;5118051;28;20031;-59
2021/12/27 09:33:36;;;;;;;36.58;24.10;;;102.80;2099.20;;;;;;5117759;28;20036;-57
2021/12/27 09:36:02;;;;;;;41.80;25.58;;;102.80;2099.20;;;;;;5117626;28;20412;-59
2021/12/27 09:38:28;;;;;;;41.50;26.33;;;102.80;2099.20;;;;;;5117632;28;20024;-59
2021/12/27 09:40:55;;;;;;;58.33;38.38;;;102.80;2099.20;;;;;;5117574;28;20030;-65
2021/12/27 09:43:21;;;;;;;47.38;28.27;;;102.80;2099.20;;;;;;5117526;28;20027;-59
2021/12/27 09:45:47;;;;;;;41.83;25.98;;;102.80;2073.60;;;;;;5117510;28;20354;-61
2021/12/27 09:48:13;;;;;;;32.28;20.50;;;102.70;2099.20;;;;;;5098535;28;20088;-61
2021/12/27 09:50:45;;;;;;;33.42;19.42;;;102.70;2099.20;;;;;;5099102;28;20019;-62
2021/12/27 09:53:11;;;;;;;43.47;21.58;;;102.70;2099.20;;;;;;5117291;28;20110;-61
2021/12/27 09:55:38;;;;;;;39.50;20.55;;;102.70;2099.20;;;;;;5117251;28;20031;-62
2021/12/27 09:58:05;;;;;;;34.03;19.00;;;102.70;2099.20;;;;;;5117247;28;20126;-61
2021/12/27 10:00:32;;;;;;;30.58;17.48;;;102.70;2099.20;;;;;;5117152;28;20024;-62
2021/12/27 10:02:58;;;;;;;25.90;17.15;;;102.60;2099.20;;;;;;5116927;28;20111;-64
2021/12/27 10:05:26;;;;;;;31.20;20.15;;;102.60;2099.20;;;;;;5117022;28;20016;-61
2021/12/27 10:07:52;;;;;;;30.65;19.70;;;102.70;2099.20;;;;;;5116225;28;20127;-61
2021/12/27 10:10:18;;;;;;;38.05;21.48;;;102.80;2099.20;;;;;;5094097;28;20202;-62
2021/12/27 10:12:45;;;;;;;51.03;25.90;;;102.80;2073.60;;;;;;5106278;28;20028;-61
2021/12/27 10:15:14;;;;;;;74.57;32.83;;;102.90;2073.60;;;;;;5109005;28;20127;-60
2021/12/27 10:17:42;;;;;;;89.00;36.70;;;102.90;2073.60;;;;;;5105521;28;20024;-62
2021/12/27 10:20:26;;;;;;;76.68;35.50;;;103.00;2073.60;;;;;;5096094;28;20102;-61
2021/12/27 10:22:54;;;;;;;64.07;31.38;;;103.00;2073.60;;;;;;5106302;28;20019;-64
2021/12/27 10:25:26;;;;;;;68.35;33.03;;;103.00;2073.60;;;;;;5106095;28;20425;-62
2021/12/27 10:27:54;;;;;;;59.50;29.35;;;103.00;2048.00;;;;;;5093003;28;20484;-65
2021/12/27 10:30:23;;;;;;;50.13;30.02;;;103.00;2073.60;;;;;;5116852;28;20469;-62
2021/12/27 10:33:08;;;;;;;50.28;29.88;;;103.00;2073.60;;;;;;5116545;28;20103;-62
2021/12/27 10:35:41;;;;;;;;;;;103.10;2073.60;;;;;;5117101;28;20022;-67
2021/12/27 10:38:31;;;;;;;37.75;22.75;;;103.10;2048.00;;;;;;5116342;28;19907;-76
2021/12/27 10:41:03;;;;;;;29.73;17.95;;;103.10;2073.60;;;;;;5115028;28;20031;-71
2021/12/27 10:43:42;;;;;;;92.32;55.03;;;103.10;2073.60;;;;;;5116640;28;20034;-70
2021/12/27 10:46:18;;;;;;;73.32;42.80;;;103.10;2048.00;;;;;;5111947;28;20106;-72
2021/12/27 10:48:59;;;;;;;64.85;35.83;;;103.10;2048.00;;;;;;5106044;28;20124;-73
2021/12/27 10:51:26;;;;;;;126.97;78.78;;;103.10;2048.00;;;;;;5106684;28;20369;-71
2021/12/27 10:53:58;;;;;;;62.42;36.65;;;103.10;2048.00;;;;;;5095639;28;20019;-69
2021/12/27 10:56:25;;;;;;;143.85;80.90;;;103.10;2048.00;;;;;;5095850;28;20165;-69
2021/12/27 10:58:56;;;;;;;127.18;72.68;;;103.00;2048.00;;;;;;5095723;28;20347;-70
2021/12/27 11:01:26;;;;;;;108.55;65.22;;;103.00;2048.00;;;;;;5077318;28;20017;-73
2021/12/27 11:03:55;;;;;;;78.13;48.00;;;102.90;2073.60;;;;;;5095576;28;20043;-68
2021/12/27 11:06:26;;;;;;;79.85;52.55;;;102.90;2073.60;;;;;;5105402;28;20388;-64
2021/12/27 11:08:53;;;;;;;55.70;35.90;;;102.90;2099.20;;;;;;5115382;28;20031;-65
2021/12/27 11:11:22;;;;;;;144.65;82.35;;;102.80;2073.60;;;;;;5115906;28;20024;-69
2021/12/27 11:13:51;;;;;;;502.65;290.73;;;102.80;2099.20;;;;;;5112160;28;20031;-67
2021/12/27 11:16:16;;;;;;;170.32;107.40;;;102.90;2124.80;;;;;;5098688;28;20044;-70
2021/12/27 11:18:42;;;;;;;97.72;56.22;;;102.90;2099.20;;;;;;5095169;28;20483;-67
2021/12/27 11:21:15;;;;;;;55.05;33.55;;;103.00;2073.60;;;;;;5075539;28;20131;-68
2021/12/27 11:23:42;;;;;;;51.22;32.03;;;102.90;2073.60;;;;;;5095196;28;20028;-64
2021/12/27 11:26:10;;;;;;;48.00;28.65;;;102.90;2073.60;;;;;;5095171;28;20025;-68
2021/12/27 11:28:38;;;;;;;42.63;24.48;;;102.90;2073.60;;;;;;5095155;28;20055;-69
2021/12/27 11:31:24;;;;;;;39.58;23.27;;;102.80;2073.60;;;;;;5094812;28;20016;-68
2021/12/27 11:34:03;;;;;;;50.33;25.23;;;102.80;2099.20;;;;;;5012787;28;20030;-65
2021/12/27 11:36:32;;;;;;;60.80;28.85;;;102.80;2099.20;;;;;;5013276;28;20030;-70
2021/12/27 11:39:15;;;;;;;55.33;29.13;;;102.80;2099.20;;;;;;5013266;28;20036;-71
2021/12/27 11:41:41;;;;;;;69.32;35.35;;;102.80;2099.20;;;;;;5027829;28;20470;-70
2021/12/27 11:44:12;;;;;;;59.45;31.98;;;102.70;2124.80;;;;;;5046207;28;20037;-71
2021/12/27 11:46:47;;;;;;;138.57;62.92;;;102.70;2124.80;;;;;;5041370;28;20025;-68
2021/12/27 11:49:13;;;;;;;;;;;102.80;2099.20;;;;;;5040337;28;20021;-69
2021/12/27 11:51:40;;;;;;;249.27;93.72;;;102.70;2124.80;;;;;;5033742;28;20017;-64
2021/12/27 11:54:27;;;;;;;252.70;101.72;;;102.70;2099.20;;;;;;5046367;28;20128;-66
2021/12/27 11:56:53;;;;;;;142.07;62.20;;;102.80;2099.20;;;;;;5052231;28;20056;-65
2021/12/27 11:59:22;;;;;;;94.55;45.65;;;102.70;2099.20;;;;;;5051699;28;20031;-65